sensor_id;sensor_type;location;lat;lon;timestamp;temperature;humidity
23560;DHT22;11958;50.836;4.438;2023-01-13T00:00:48;9.90;85.60
23560;DHT22;11958;50.836;4.438;2023-01-13T00:03:14;9.80;85.60
23560;DHT22;11958;50.836;4.438;2023-01-13T00:05:40;10.00;84.50
23560;DHT22;11958;50.836;4.438;2023-01-13T00:08:06;9.90;85.70
23560;DHT22;11958;50.836;4.438;2023-01-13T00:10:33;9.90;84.10
23560;DHT22;11958;50.836;4.438;2023-01-13T00:12:59;9.90;83.90
23560;DHT22;11958;50.836;4.438;2023-01-13T00:15:25;10.00;83.70
23560;DHT22;11958;50.836;4.438;2023-01-13T00:17:51;10.00;84.10
23560;DHT22;11958;50.836;4.438;2023-01-13T00:20:17;9.90;84.20
23560;DHT22;11958;50.836;4.438;2023-01-13T00:22:42;9.90;83.50
23560;DHT22;11958;50.836;4.438;2023-01-13T00:25:08;9.90;84.30
23560;DHT22;11958;50.836;4.438;2023-01-13T00:27:34;9.70;84.00
23560;DHT22;11958;50.836;4.438;2023-01-13T00:29:59;9.70;83.80
23560;DHT22;11958;50.836;4.438;2023-01-13T00:32:26;9.60;82.20
23560;DHT22;11958;50.836;4.438;2023-01-13T00:34:51;9.70;81.90
23560;DHT22;11958;50.836;4.438;2023-01-13T00:37:17;9.70;81.80
23560;DHT22;11958;50.836;4.438;2023-01-13T00:39:43;9.70;81.40
23560;DHT22;11958;50.836;4.438;2023-01-13T00:42:10;9.60;81.50
23560;DHT22;11958;50.836;4.438;2023-01-13T00:44:54;9.70;81.00
23560;DHT22;11958;50.836;4.438;2023-01-13T00:47:20;9.50;81.20
23560;DHT22;11958;50.836;4.438;2023-01-13T00:49:46;9.60;80.60
23560;DHT22;11958;50.836;4.438;2023-01-13T00:52:11;9.70;80.90
23560;DHT22;11958;50.836;4.438;2023-01-13T00:54:37;9.60;81.10
23560;DHT22;11958;50.836;4.438;2023-01-13T00:57:04;9.50;80.90
23560;DHT22;11958;50.836;4.438;2023-01-13T00:59:30;9.50;80.60
23560;DHT22;11958;50.836;4.438;2023-01-13T01:01:55;9.50;81.80
23560;DHT22;11958;50.836;4.438;2023-01-13T01:04:21;9.40;82.00
23560;DHT22;11958;50.836;4.438;2023-01-13T01:06:47;9.30;81.10
23560;DHT22;11958;50.836;4.438;2023-01-13T01:09:14;9.40;81.40
23560;DHT22;11958;50.836;4.438;2023-01-13T01:11:40;9.30;80.90
23560;DHT22;11958;50.836;4.438;2023-01-13T01:14:08;9.30;81.50
23560;DHT22;11958;50.836;4.438;2023-01-13T01:16:34;9.30;81.20
23560;DHT22;11958;50.836;4.438;2023-01-13T01:19:00;9.40;81.80
23560;DHT22;11958;50.836;4.438;2023-01-13T01:21:27;9.20;82.00
23560;DHT22;11958;50.836;4.438;2023-01-13T01:23:53;9.20;81.50
23560;DHT22;11958;50.836;4.438;2023-01-13T01:26:22;9.10;81.30
23560;DHT22;11958;50.836;4.438;2023-01-13T01:28:48;9.30;81.20
23560;DHT22;11958;50.836;4.438;2023-01-13T01:31:25;9.20;81.50
23560;DHT22;11958;50.836;4.438;2023-01-13T01:33:53;9.10;80.90
23560;DHT22;11958;50.836;4.438;2023-01-13T01:36:20;9.10;81.50
23560;DHT22;11958;50.836;4.438;2023-01-13T01:38:47;9.10;81.00
23560;DHT22;11958;50.836;4.438;2023-01-13T01:41:19;9.10;80.70
23560;DHT22;11958;50.836;4.438;2023-01-13T01:43:56;9.10;80.70
23560;DHT22;11958;50.836;4.438;2023-01-13T01:46:36;9.10;81.10
23560;DHT22;11958;50.836;4.438;2023-01-13T01:49:28;9.10;81.80
23560;DHT22;11958;50.836;4.438;2023-01-13T01:52:00;8.90;82.20
23560;DHT22;11958;50.836;4.438;2023-01-13T01:57:06;8.90;82.10
23560;DHT22;11958;50.836;4.438;2023-01-13T01:59:35;8.90;81.80
23560;DHT22;11958;50.836;4.438;2023-01-13T02:02:02;8.90;81.40
23560;DHT22;11958;50.836;4.438;2023-01-13T02:04:49;8.80;81.50
23560;DHT22;11958;50.836;4.438;2023-01-13T02:07:22;8.90;81.30
23560;DHT22;11958;50.836;4.438;2023-01-13T02:09:50;8.90;81.20
23560;DHT22;11958;50.836;4.438;2023-01-13T02:12:17;8.90;81.70
23560;DHT22;11958;50.836;4.438;2023-01-13T02:15:08;8.80;81.60
23560;DHT22;11958;50.836;4.438;2023-01-13T02:32:28;8.70;82.00
23560;DHT22;11958;50.836;4.438;2023-01-13T02:35:07;8.70;82.20
23560;DHT22;11958;50.836;4.438;2023-01-13T02:37:40;8.90;82.00
23560;DHT22;11958;50.836;4.438;2023-01-13T02:40:11;8.80;81.80
23560;DHT22;11958;50.836;4.438;2023-01-13T02:42:44;8.80;82.10
23560;DHT22;11958;50.836;4.438;2023-01-13T02:45:45;8.90;81.30
23560;DHT22;11958;50.836;4.438;2023-01-13T02:48:13;9.00;81.10
23560;DHT22;11958;50.836;4.438;2023-01-13T02:50:59;9.00;81.10
23560;DHT22;11958;50.836;4.438;2023-01-13T02:53:34;9.00;80.70
23560;DHT22;11958;50.836;4.438;2023-01-13T02:56:02;8.90;80.90
23560;DHT22;11958;50.836;4.438;2023-01-13T02:58:30;9.00;81.10
23560;DHT22;11958;50.836;4.438;2023-01-13T03:00:57;9.10;80.80
23560;DHT22;11958;50.836;4.438;2023-01-13T03:03:23;9.10;81.30
23560;DHT22;11958;50.836;4.438;2023-01-13T03:05:55;9.10;82.00
23560;DHT22;11958;50.836;4.438;2023-01-13T03:08:32;9.10;81.50
23560;DHT22;11958;50.836;4.438;2023-01-13T03:11:08;9.00;80.80
23560;DHT22;11958;50.836;4.438;2023-01-13T03:13:59;9.10;81.30
23560;DHT22;11958;50.836;4.438;2023-01-13T03:16:40;9.10;80.50
23560;DHT22;11958;50.836;4.438;2023-01-13T03:22:05;9.10;81.00
23560;DHT22;11958;50.836;4.438;2023-01-13T03:24:48;9.20;80.90
23560;DHT22;11958;50.836;4.438;2023-01-13T03:27:19;9.20;81.80
23560;DHT22;11958;50.836;4.438;2023-01-13T03:30:06;9.20;81.00
23560;DHT22;11958;50.836;4.438;2023-01-13T03:32:36;9.20;81.60
23560;DHT22;11958;50.836;4.438;2023-01-13T03:35:33;9.10;81.20
23560;DHT22;11958;50.836;4.438;2023-01-13T03:38:08;9.00;81.20
23560;DHT22;11958;50.836;4.438;2023-01-13T03:40:40;9.10;80.60
23560;DHT22;11958;50.836;4.438;2023-01-13T03:43:15;9.00;80.60
23560;DHT22;11958;50.836;4.438;2023-01-13T03:46:06;9.10;81.10
23560;DHT22;11958;50.836;4.438;2023-01-13T03:48:34;9.10;80.30
23560;DHT22;11958;50.836;4.438;2023-01-13T03:51:05;9.10;80.60
23560;DHT22;11958;50.836;4.438;2023-01-13T03:53:55;9.00;80.50
23560;DHT22;11958;50.836;4.438;2023-01-13T03:56:35;9.00;80.40
23560;DHT22;11958;50.836;4.438;2023-01-13T03:59:05;8.90;80.50
23560;DHT22;11958;50.836;4.438;2023-01-13T04:01:49;8.80;80.00
23560;DHT22;11958;50.836;4.438;2023-01-13T04:04:20;8.90;80.10
23560;DHT22;11958;50.836;4.438;2023-01-13T04:07:17;8.90;79.70
23560;DHT22;11958;50.836;4.438;2023-01-13T04:09:50;8.90;80.30
23560;DHT22;11958;50.836;4.438;2023-01-13T04:12:17;8.70;79.60
23560;DHT22;11958;50.836;4.438;2023-01-13T04:14:45;8.80;79.20
23560;DHT22;11958;50.836;4.438;2023-01-13T04:20:14;9.00;79.10
23560;DHT22;11958;50.836;4.438;2023-01-13T04:33:10;8.90;79.50
23560;DHT22;11958;50.836;4.438;2023-01-13T04:35:38;9.00;79.60
23560;DHT22;11958;50.836;4.438;2023-01-13T04:38:10;8.90;79.30
23560;DHT22;11958;50.836;4.438;2023-01-13T04:40:36;8.90;79.60
23560;DHT22;11958;50.836;4.438;2023-01-13T04:43:02;8.90;80.20
23560;DHT22;11958;50.836;4.438;2023-01-13T04:45:28;9.10;80.00
23560;DHT22;11958;50.836;4.438;2023-01-13T04:47:53;9.00;80.20
23560;DHT22;11958;50.836;4.438;2023-01-13T04:50:19;9.00;80.50
23560;DHT22;11958;50.836;4.438;2023-01-13T04:52:47;9.10;80.50
23560;DHT22;11958;50.836;4.438;2023-01-13T04:55:13;9.00;80.60
23560;DHT22;11958;50.836;4.438;2023-01-13T04:57:39;8.90;81.50
23560;DHT22;11958;50.836;4.438;2023-01-13T05:00:06;8.90;81.20
23560;DHT22;11958;50.836;4.438;2023-01-13T05:02:32;8.90;81.30
23560;DHT22;11958;50.836;4.438;2023-01-13T05:04:58;8.80;81.70
23560;DHT22;11958;50.836;4.438;2023-01-13T05:07:24;8.70;81.70
23560;DHT22;11958;50.836;4.438;2023-01-13T05:09:49;8.70;81.80
23560;DHT22;11958;50.836;4.438;2023-01-13T05:12:15;8.60;81.80
23560;DHT22;11958;50.836;4.438;2023-01-13T05:14:59;8.50;81.90
23560;DHT22;11958;50.836;4.438;2023-01-13T05:17:43;8.60;81.70
23560;DHT22;11958;50.836;4.438;2023-01-13T05:20:10;8.50;82.50
23560;DHT22;11958;50.836;4.438;2023-01-13T05:22:36;8.40;83.00
23560;DHT22;11958;50.836;4.438;2023-01-13T05:25:21;8.30;83.30
23560;DHT22;11958;50.836;4.438;2023-01-13T05:27:54;8.30;83.50
23560;DHT22;11958;50.836;4.438;2023-01-13T05:30:28;8.20;83.70
23560;DHT22;11958;50.836;4.438;2023-01-13T05:32:54;8.30;83.40
23560;DHT22;11958;50.836;4.438;2023-01-13T05:35:20;8.20;83.40
23560;DHT22;11958;50.836;4.438;2023-01-13T05:37:46;8.30;83.30
23560;DHT22;11958;50.836;4.438;2023-01-13T05:40:14;8.30;83.40
23560;DHT22;11958;50.836;4.438;2023-01-13T05:43:12;8.20;83.40
23560;DHT22;11958;50.836;4.438;2023-01-13T05:46:06;8.30;83.20
23560;DHT22;11958;50.836;4.438;2023-01-13T05:48:34;8.30;82.90
23560;DHT22;11958;50.836;4.438;2023-01-13T05:51:01;8.10;83.80
23560;DHT22;11958;50.836;4.438;2023-01-13T05:53:28;8.10;83.40
23560;DHT22;11958;50.836;4.438;2023-01-13T05:55:54;8.10;84.10
23560;DHT22;11958;50.836;4.438;2023-01-13T05:58:23;8.20;83.30
23560;DHT22;11958;50.836;4.438;2023-01-13T06:00:49;8.10;83.40
23560;DHT22;11958;50.836;4.438;2023-01-13T06:03:15;8.10;83.80
23560;DHT22;11958;50.836;4.438;2023-01-13T06:05:44;8.10;84.50
23560;DHT22;11958;50.836;4.438;2023-01-13T06:08:10;8.00;84.10
23560;DHT22;11958;50.836;4.438;2023-01-13T06:10:35;8.10;84.30
23560;DHT22;11958;50.836;4.438;2023-01-13T06:13:02;8.10;84.50
23560;DHT22;11958;50.836;4.438;2023-01-13T06:15:28;8.00;84.50
23560;DHT22;11958;50.836;4.438;2023-01-13T06:17:53;8.10;85.10
23560;DHT22;11958;50.836;4.438;2023-01-13T06:20:20;8.20;85.10
23560;DHT22;11958;50.836;4.438;2023-01-13T06:22:49;8.10;85.10
23560;DHT22;11958;50.836;4.438;2023-01-13T06:25:41;8.10;85.40
23560;DHT22;11958;50.836;4.438;2023-01-13T06:28:09;8.20;85.20
23560;DHT22;11958;50.836;4.438;2023-01-13T06:30:42;8.10;85.60
23560;DHT22;11958;50.836;4.438;2023-01-13T06:33:13;8.00;85.70
23560;DHT22;11958;50.836;4.438;2023-01-13T06:35:43;8.10;85.10
23560;DHT22;11958;50.836;4.438;2023-01-13T06:38:14;8.00;85.20
23560;DHT22;11958;50.836;4.438;2023-01-13T06:40:41;8.10;84.80
23560;DHT22;11958;50.836;4.438;2023-01-13T06:43:07;8.00;84.90
23560;DHT22;11958;50.836;4.438;2023-01-13T06:45:49;8.00;84.60
23560;DHT22;11958;50.836;4.438;2023-01-13T06:48:19;8.00;84.50
23560;DHT22;11958;50.836;4.438;2023-01-13T06:50:46;8.10;84.40
23560;DHT22;11958;50.836;4.438;2023-01-13T06:53:12;8.10;84.10
23560;DHT22;11958;50.836;4.438;2023-01-13T06:55:37;8.10;83.60
23560;DHT22;11958;50.836;4.438;2023-01-13T06:58:03;8.10;83.50
23560;DHT22;11958;50.836;4.438;2023-01-13T07:00:29;7.90;83.70
23560;DHT22;11958;50.836;4.438;2023-01-13T07:03:11;8.10;83.20
23560;DHT22;11958;50.836;4.438;2023-01-13T07:05:38;8.20;82.10
23560;DHT22;11958;50.836;4.438;2023-01-13T07:08:04;8.20;81.90
23560;DHT22;11958;50.836;4.438;2023-01-13T07:10:31;8.20;82.80
23560;DHT22;11958;50.836;4.438;2023-01-13T07:13:02;8.20;81.60
23560;DHT22;11958;50.836;4.438;2023-01-13T07:15:57;8.20;81.80
23560;DHT22;11958;50.836;4.438;2023-01-13T07:18:24;8.00;82.50
23560;DHT22;11958;50.836;4.438;2023-01-13T07:21:00;8.00;82.10
23560;DHT22;11958;50.836;4.438;2023-01-13T07:23:28;8.10;82.30
23560;DHT22;11958;50.836;4.438;2023-01-13T07:25:55;8.10;82.10
23560;DHT22;11958;50.836;4.438;2023-01-13T07:28:21;8.00;82.50
23560;DHT22;11958;50.836;4.438;2023-01-13T07:30:46;8.00;82.80
23560;DHT22;11958;50.836;4.438;2023-01-13T07:33:12;8.00;83.30
23560;DHT22;11958;50.836;4.438;2023-01-13T07:35:38;7.90;82.20
23560;DHT22;11958;50.836;4.438;2023-01-13T07:38:03;8.00;82.90
23560;DHT22;11958;50.836;4.438;2023-01-13T07:40:29;7.90;83.10
23560;DHT22;11958;50.836;4.438;2023-01-13T07:42:55;7.90;83.30
23560;DHT22;11958;50.836;4.438;2023-01-13T07:45:39;7.80;83.90
23560;DHT22;11958;50.836;4.438;2023-01-13T07:48:05;7.90;83.80
23560;DHT22;11958;50.836;4.438;2023-01-13T07:50:30;8.00;83.60
23560;DHT22;11958;50.836;4.438;2023-01-13T07:52:58;8.10;84.00
23560;DHT22;11958;50.836;4.438;2023-01-13T07:55:24;8.00;83.80
23560;DHT22;11958;50.836;4.438;2023-01-13T07:57:49;7.90;83.10
23560;DHT22;11958;50.836;4.438;2023-01-13T08:00:15;8.00;83.60
23560;DHT22;11958;50.836;4.438;2023-01-13T08:02:42;8.00;83.80
23560;DHT22;11958;50.836;4.438;2023-01-13T08:05:07;8.00;83.40
23560;DHT22;11958;50.836;4.438;2023-01-13T08:07:33;7.90;83.70
23560;DHT22;11958;50.836;4.438;2023-01-13T08:09:59;8.00;83.60
23560;DHT22;11958;50.836;4.438;2023-01-13T08:12:25;8.00;83.60
23560;DHT22;11958;50.836;4.438;2023-01-13T08:15:09;8.10;82.80
23560;DHT22;11958;50.836;4.438;2023-01-13T08:17:36;8.00;83.00
23560;DHT22;11958;50.836;4.438;2023-01-13T08:20:03;8.00;83.60
23560;DHT22;11958;50.836;4.438;2023-01-13T08:22:29;8.10;83.10
23560;DHT22;11958;50.836;4.438;2023-01-13T08:24:55;8.20;82.70
23560;DHT22;11958;50.836;4.438;2023-01-13T08:27:21;8.30;82.10
23560;DHT22;11958;50.836;4.438;2023-01-13T08:29:48;8.20;82.20
23560;DHT22;11958;50.836;4.438;2023-01-13T08:32:14;8.10;82.60
23560;DHT22;11958;50.836;4.438;2023-01-13T08:34:40;8.30;82.40
23560;DHT22;11958;50.836;4.438;2023-01-13T08:37:06;8.20;83.30
23560;DHT22;11958;50.836;4.438;2023-01-13T08:39:31;8.10;83.00
23560;DHT22;11958;50.836;4.438;2023-01-13T08:41:57;8.30;82.90
23560;DHT22;11958;50.836;4.438;2023-01-13T08:44:28;8.30;83.00
23560;DHT22;11958;50.836;4.438;2023-01-13T08:46:54;8.40;82.20
23560;DHT22;11958;50.836;4.438;2023-01-13T08:49:22;8.40;81.90
23560;DHT22;11958;50.836;4.438;2023-01-13T08:51:49;8.50;82.10
23560;DHT22;11958;50.836;4.438;2023-01-13T08:54:15;8.40;81.50
23560;DHT22;11958;50.836;4.438;2023-01-13T08:56:42;8.50;81.90
23560;DHT22;11958;50.836;4.438;2023-01-13T08:59:18;8.50;81.50
23560;DHT22;11958;50.836;4.438;2023-01-13T09:01:45;8.40;81.90
23560;DHT22;11958;50.836;4.438;2023-01-13T09:04:20;8.50;81.50
23560;DHT22;11958;50.836;4.438;2023-01-13T09:06:48;8.40;81.30
23560;DHT22;11958;50.836;4.438;2023-01-13T09:09:14;8.60;81.20
23560;DHT22;11958;50.836;4.438;2023-01-13T09:11:42;8.50;80.90
23560;DHT22;11958;50.836;4.438;2023-01-13T09:14:30;8.60;81.20
23560;DHT22;11958;50.836;4.438;2023-01-13T09:16:56;8.40;81.50
23560;DHT22;11958;50.836;4.438;2023-01-13T09:19:22;8.40;81.70
23560;DHT22;11958;50.836;4.438;2023-01-13T09:21:47;8.60;81.90
23560;DHT22;11958;50.836;4.438;2023-01-13T09:24:13;8.50;81.20
23560;DHT22;11958;50.836;4.438;2023-01-13T09:26:39;8.50;81.10
23560;DHT22;11958;50.836;4.438;2023-01-13T09:29:05;8.50;80.70
23560;DHT22;11958;50.836;4.438;2023-01-13T09:31:31;8.50;80.70
23560;DHT22;11958;50.836;4.438;2023-01-13T09:34:01;8.60;80.70
23560;DHT22;11958;50.836;4.438;2023-01-13T09:36:45;8.70;80.80
23560;DHT22;11958;50.836;4.438;2023-01-13T09:39:11;8.70;79.90
23560;DHT22;11958;50.836;4.438;2023-01-13T09:41:41;8.90;79.20
23560;DHT22;11958;50.836;4.438;2023-01-13T09:44:41;8.90;79.60
23560;DHT22;11958;50.836;4.438;2023-01-13T09:50:02;9.20;79.30
23560;DHT22;11958;50.836;4.438;2023-01-13T09:52:31;9.20;79.00
23560;DHT22;11958;50.836;4.438;2023-01-13T09:55:04;9.30;78.40
23560;DHT22;11958;50.836;4.438;2023-01-13T09:57:34;9.30;78.00
23560;DHT22;11958;50.836;4.438;2023-01-13T10:00:02;9.20;79.20
23560;DHT22;11958;50.836;4.438;2023-01-13T10:02:37;9.20;78.20
23560;DHT22;11958;50.836;4.438;2023-01-13T10:07:49;9.20;77.90
23560;DHT22;11958;50.836;4.438;2023-01-13T10:10:37;9.10;78.90
23560;DHT22;11958;50.836;4.438;2023-01-13T10:23:52;9.20;78.50
23560;DHT22;11958;50.836;4.438;2023-01-13T10:26:44;9.20;79.20
23560;DHT22;11958;50.836;4.438;2023-01-13T10:29:23;9.30;78.50
23560;DHT22;11958;50.836;4.438;2023-01-13T10:31:51;9.30;79.60
23560;DHT22;11958;50.836;4.438;2023-01-13T10:34:17;9.40;78.50
23560;DHT22;11958;50.836;4.438;2023-01-13T10:37:00;9.40;79.40
23560;DHT22;11958;50.836;4.438;2023-01-13T10:39:41;9.40;78.50
23560;DHT22;11958;50.836;4.438;2023-01-13T10:42:18;9.50;78.50
23560;DHT22;11958;50.836;4.438;2023-01-13T10:44:56;9.40;80.30
23560;DHT22;11958;50.836;4.438;2023-01-13T10:47:30;9.30;80.30
23560;DHT22;11958;50.836;4.438;2023-01-13T10:50:01;9.20;81.00
23560;DHT22;11958;50.836;4.438;2023-01-13T10:52:29;9.30;81.80
23560;DHT22;11958;50.836;4.438;2023-01-13T10:54:55;9.30;81.20
23560;DHT22;11958;50.836;4.438;2023-01-13T10:57:25;9.30;81.00
23560;DHT22;11958;50.836;4.438;2023-01-13T10:59:52;9.30;80.80
23560;DHT22;11958;50.836;4.438;2023-01-13T11:07:27;9.40;80.20
23560;DHT22;11958;50.836;4.438;2023-01-13T11:10:15;9.50;79.70
23560;DHT22;11958;50.836;4.438;2023-01-13T11:15:13;9.40;79.50
23560;DHT22;11958;50.836;4.438;2023-01-13T11:17:52;9.40;79.70
23560;DHT22;11958;50.836;4.438;2023-01-13T11:20:29;9.30;80.30
23560;DHT22;11958;50.836;4.438;2023-01-13T11:23:01;9.30;80.90
23560;DHT22;11958;50.836;4.438;2023-01-13T11:25:37;9.20;80.90
23560;DHT22;11958;50.836;4.438;2023-01-13T11:33:45;9.10;81.30
23560;DHT22;11958;50.836;4.438;2023-01-13T11:38:50;9.20;82.50
23560;DHT22;11958;50.836;4.438;2023-01-13T11:41:40;9.20;83.30
23560;DHT22;11958;50.836;4.438;2023-01-13T11:44:21;9.10;83.80
23560;DHT22;11958;50.836;4.438;2023-01-13T11:46:51;9.10;84.30
23560;DHT22;11958;50.836;4.438;2023-01-13T11:49:26;9.00;84.60
23560;DHT22;11958;50.836;4.438;2023-01-13T11:52:05;9.00;84.50
23560;DHT22;11958;50.836;4.438;2023-01-13T11:54:45;9.10;84.90
23560;DHT22;11958;50.836;4.438;2023-01-13T12:00:07;9.10;83.00
23560;DHT22;11958;50.836;4.438;2023-01-13T12:05:38;9.20;82.90
23560;DHT22;11958;50.836;4.438;2023-01-13T12:08:22;9.30;82.00
23560;DHT22;11958;50.836;4.438;2023-01-13T12:11:31;9.40;82.30
23560;DHT22;11958;50.836;4.438;2023-01-13T12:14:11;9.50;81.90
23560;DHT22;11958;50.836;4.438;2023-01-13T12:16:47;9.50;81.70
23560;DHT22;11958;50.836;4.438;2023-01-13T12:21:56;9.50;80.90
23560;DHT22;11958;50.836;4.438;2023-01-13T12:24:37;9.60;81.30
23560;DHT22;11958;50.836;4.438;2023-01-13T12:27:31;9.60;80.30
23560;DHT22;11958;50.836;4.438;2023-01-13T12:30:00;9.50;81.20
23560;DHT22;11958;50.836;4.438;2023-01-13T12:32:33;9.60;80.00
23560;DHT22;11958;50.836;4.438;2023-01-13T12:35:04;9.60;78.40
23560;DHT22;11958;50.836;4.438;2023-01-13T12:37:36;9.60;77.50
23560;DHT22;11958;50.836;4.438;2023-01-13T12:42:57;9.70;77.60
23560;DHT22;11958;50.836;4.438;2023-01-13T12:49:25;9.90;77.30
23560;DHT22;11958;50.836;4.438;2023-01-13T12:56:55;9.80;75.80
23560;DHT22;11958;50.836;4.438;2023-01-13T13:02:21;9.60;77.60
23560;DHT22;11958;50.836;4.438;2023-01-13T13:04:49;9.60;77.00
23560;DHT22;11958;50.836;4.438;2023-01-13T13:07:42;9.60;77.00
23560;DHT22;11958;50.836;4.438;2023-01-13T13:10:46;9.70;75.90
23560;DHT22;11958;50.836;4.438;2023-01-13T13:13:21;9.70;75.70
23560;DHT22;11958;50.836;4.438;2023-01-13T13:45:16;10.10;72.20
23560;DHT22;11958;50.836;4.438;2023-01-13T13:50:47;10.00;70.40
23560;DHT22;11958;50.836;4.438;2023-01-13T13:53:14;10.20;72.50
23560;DHT22;11958;50.836;4.438;2023-01-13T13:55:52;10.10;71.20
23560;DHT22;11958;50.836;4.438;2023-01-13T13:58:18;10.20;73.00
23560;DHT22;11958;50.836;4.438;2023-01-13T14:00:55;10.20;70.40
23560;DHT22;11958;50.836;4.438;2023-01-13T14:03:30;10.10;70.70
23560;DHT22;11958;50.836;4.438;2023-01-13T14:05:59;10.20;70.80
23560;DHT22;11958;50.836;4.438;2023-01-13T14:08:30;10.20;70.90
23560;DHT22;11958;50.836;4.438;2023-01-13T14:10:57;10.20;70.60
23560;DHT22;11958;50.836;4.438;2023-01-13T14:13:29;10.30;71.10
23560;DHT22;11958;50.836;4.438;2023-01-13T14:16:00;10.30;70.50
23560;DHT22;11958;50.836;4.438;2023-01-13T14:18:28;10.30;70.60
23560;DHT22;11958;50.836;4.438;2023-01-13T14:23:50;10.30;71.70
23560;DHT22;11958;50.836;4.438;2023-01-13T14:26:16;10.20;71.70
23560;DHT22;11958;50.836;4.438;2023-01-13T14:28:43;10.20;71.30
23560;DHT22;11958;50.836;4.438;2023-01-13T14:31:09;10.30;71.20
23560;DHT22;11958;50.836;4.438;2023-01-13T14:33:37;10.20;72.10
23560;DHT22;11958;50.836;4.438;2023-01-13T14:38:39;10.20;72.60
23560;DHT22;11958;50.836;4.438;2023-01-13T14:41:24;10.30;72.90
23560;DHT22;11958;50.836;4.438;2023-01-13T14:43:55;10.30;71.80
23560;DHT22;11958;50.836;4.438;2023-01-13T14:46:21;10.30;73.10
23560;DHT22;11958;50.836;4.438;2023-01-13T14:48:53;10.20;73.30
23560;DHT22;11958;50.836;4.438;2023-01-13T15:49:33;9.70;70.50
23560;DHT22;11958;50.836;4.438;2023-01-13T15:52:12;9.70;69.60
23560;DHT22;11958;50.836;4.438;2023-01-13T15:54:40;9.70;70.40
23560;DHT22;11958;50.836;4.438;2023-01-13T15:57:07;9.70;68.60
23560;DHT22;11958;50.836;4.438;2023-01-13T15:59:33;9.60;68.90
23560;DHT22;11958;50.836;4.438;2023-01-13T16:01:58;9.50;71.10
23560;DHT22;11958;50.836;4.438;2023-01-13T16:04:24;9.50;70.00
23560;DHT22;11958;50.836;4.438;2023-01-13T16:06:50;9.60;70.30
23560;DHT22;11958;50.836;4.438;2023-01-13T16:09:16;9.50;70.20
23560;DHT22;11958;50.836;4.438;2023-01-13T16:33:11;9.30;72.80
23560;DHT22;11958;50.836;4.438;2023-01-13T16:35:37;9.30;72.70
23560;DHT22;11958;50.836;4.438;2023-01-13T16:38:03;9.10;73.60
23560;DHT22;11958;50.836;4.438;2023-01-13T16:40:34;9.20;73.40
23560;DHT22;11958;50.836;4.438;2023-01-13T16:43:01;9.10;74.80
23560;DHT22;11958;50.836;4.438;2023-01-13T16:45:29;9.10;73.80
23560;DHT22;11958;50.836;4.438;2023-01-13T16:47:55;9.10;74.40
23560;DHT22;11958;50.836;4.438;2023-01-13T16:50:37;9.00;74.70
23560;DHT22;11958;50.836;4.438;2023-01-13T16:53:07;9.10;75.10
23560;DHT22;11958;50.836;4.438;2023-01-13T16:55:34;9.10;75.70
23560;DHT22;11958;50.836;4.438;2023-01-13T16:58:00;8.90;76.50
23560;DHT22;11958;50.836;4.438;2023-01-13T17:00:27;8.90;76.80
23560;DHT22;11958;50.836;4.438;2023-01-13T17:02:52;8.90;76.40
23560;DHT22;11958;50.836;4.438;2023-01-13T17:05:18;8.90;76.60
23560;DHT22;11958;50.836;4.438;2023-01-13T17:07:53;8.90;76.60
23560;DHT22;11958;50.836;4.438;2023-01-13T17:10:23;8.90;77.20
23560;DHT22;11958;50.836;4.438;2023-01-13T17:12:50;8.90;77.30
23560;DHT22;11958;50.836;4.438;2023-01-13T17:15:17;8.90;77.40
23560;DHT22;11958;50.836;4.438;2023-01-13T17:17:44;8.80;77.50
23560;DHT22;11958;50.836;4.438;2023-01-13T17:20:16;8.70;77.80
23560;DHT22;11958;50.836;4.438;2023-01-13T17:22:43;8.70;78.10
23560;DHT22;11958;50.836;4.438;2023-01-13T17:25:11;8.70;78.10
23560;DHT22;11958;50.836;4.438;2023-01-13T17:27:37;8.80;78.30
23560;DHT22;11958;50.836;4.438;2023-01-13T17:30:04;8.80;78.50
23560;DHT22;11958;50.836;4.438;2023-01-13T17:32:30;8.80;78.60
23560;DHT22;11958;50.836;4.438;2023-01-13T17:34:56;8.80;78.30
23560;DHT22;11958;50.836;4.438;2023-01-13T17:37:22;8.80;78.80
23560;DHT22;11958;50.836;4.438;2023-01-13T17:39:47;8.90;78.00
23560;DHT22;11958;50.836;4.438;2023-01-13T17:42:15;8.90;78.50
23560;DHT22;11958;50.836;4.438;2023-01-13T17:44:41;8.90;78.20
23560;DHT22;11958;50.836;4.438;2023-01-13T17:47:07;9.00;78.10
23560;DHT22;11958;50.836;4.438;2023-01-13T17:49:33;9.00;78.10
23560;DHT22;11958;50.836;4.438;2023-01-13T17:51:58;9.00;77.60
23560;DHT22;11958;50.836;4.438;2023-01-13T17:54:24;9.00;78.50
23560;DHT22;11958;50.836;4.438;2023-01-13T17:56:50;9.00;78.20
23560;DHT22;11958;50.836;4.438;2023-01-13T17:59:17;8.90;78.30
23560;DHT22;11958;50.836;4.438;2023-01-13T18:01:44;9.00;78.50
23560;DHT22;11958;50.836;4.438;2023-01-13T18:04:14;9.00;78.20
23560;DHT22;11958;50.836;4.438;2023-01-13T18:06:41;9.00;78.20
23560;DHT22;11958;50.836;4.438;2023-01-13T18:09:07;9.00;78.70
23560;DHT22;11958;50.836;4.438;2023-01-13T18:11:32;9.00;79.00
23560;DHT22;11958;50.836;4.438;2023-01-13T18:13:58;8.90;78.00
23560;DHT22;11958;50.836;4.438;2023-01-13T18:16:28;8.90;78.60
23560;DHT22;11958;50.836;4.438;2023-01-13T18:18:55;9.00;78.30
23560;DHT22;11958;50.836;4.438;2023-01-13T18:21:39;9.00;78.30
23560;DHT22;11958;50.836;4.438;2023-01-13T18:24:23;9.10;78.10
23560;DHT22;11958;50.836;4.438;2023-01-13T18:27:11;9.10;77.70
23560;DHT22;11958;50.836;4.438;2023-01-13T18:30:03;9.00;78.20
23560;DHT22;11958;50.836;4.438;2023-01-13T18:32:31;8.90;78.50
23560;DHT22;11958;50.836;4.438;2023-01-13T18:38:09;9.00;78.00
23560;DHT22;11958;50.836;4.438;2023-01-13T18:40:48;9.00;78.60
23560;DHT22;11958;50.836;4.438;2023-01-13T18:43:15;8.90;78.60
23560;DHT22;11958;50.836;4.438;2023-01-13T18:46:13;8.90;78.70
23560;DHT22;11958;50.836;4.438;2023-01-13T18:48:47;8.80;79.00
23560;DHT22;11958;50.836;4.438;2023-01-13T18:51:15;8.80;79.00
23560;DHT22;11958;50.836;4.438;2023-01-13T18:53:41;8.80;79.00
23560;DHT22;11958;50.836;4.438;2023-01-13T18:56:20;8.90;78.90
23560;DHT22;11958;50.836;4.438;2023-01-13T18:59:06;8.80;79.50
23560;DHT22;11958;50.836;4.438;2023-01-13T19:09:19;8.60;80.00
23560;DHT22;11958;50.836;4.438;2023-01-13T19:12:05;8.70;79.90
23560;DHT22;11958;50.836;4.438;2023-01-13T19:14:41;8.60;80.10
23560;DHT22;11958;50.836;4.438;2023-01-13T19:17:11;8.60;80.30
23560;DHT22;11958;50.836;4.438;2023-01-13T19:19:53;8.50;80.50
23560;DHT22;11958;50.836;4.438;2023-01-13T19:23:08;8.50;80.80
23560;DHT22;11958;50.836;4.438;2023-01-13T19:34:27;8.40;81.20
23560;DHT22;11958;50.836;4.438;2023-01-13T19:53:23;8.40;81.10
23560;DHT22;11958;50.836;4.438;2023-01-13T20:06:34;8.40;81.80
23560;DHT22;11958;50.836;4.438;2023-01-13T20:16:14;8.40;81.20
23560;DHT22;11958;50.836;4.438;2023-01-13T20:25:47;8.50;81.50
23560;DHT22;11958;50.836;4.438;2023-01-13T21:17:27;8.30;81.70
23560;DHT22;11958;50.836;4.438;2023-01-13T21:23:55;8.20;82.10
23560;DHT22;11958;50.836;4.438;2023-01-13T21:45:34;8.10;82.90
23560;DHT22;11958;50.836;4.438;2023-01-13T21:48:20;8.10;82.70
23560;DHT22;11958;50.836;4.438;2023-01-13T21:50:46;8.00;82.90